Time;durP1;ratioP1;P1;durP2;ratioP2;P2;SDS_P1;SDS_P2;PMS_P1;PMS_P2;Temp;Humidity;BMP_temperature;BMP_pressure;BME280_temperature;BME280_humidity;BME280_pressure;Samples;Min_cycle;Max_cycle;Signal;HPM_P1;HPM_P2
2021/10/29 00:00:08;;;;;;;196.50;142.00;;;;;;;1.84;91.07;99543.42;112513;1193;61075;-79
2021/10/29 00:02:54;;;;;;;190.80;139.00;;;;;;;1.81;91.23;99541.57;112475;1192;61055;-81
2021/10/29 00:05:21;;;;;;;199.00;140.20;;;;;;;1.78;91.21;99544.10;112516;1193;61016;-79
2021/10/29 00:07:47;;;;;;;199.20;142.30;;;;;;;1.73;91.28;99544.19;112532;1191;61031;-79
2021/10/29 00:10:14;;;;;;;199.90;144.90;;;;;;;1.72;91.46;99540.73;112547;1193;61033;-80
2021/10/29 00:12:41;;;;;;;194.40;144.80;;;;;;;1.69;91.47;99545.14;112576;1194;64776;-79
2021/10/29 00:15:09;;;;;;;204.80;147.20;;;;;;;1.68;91.53;99542.18;112451;1192;61069;-81
2021/10/29 00:17:35;;;;;;;195.90;140.40;;;;;;;1.66;91.45;99539.79;112594;1193;61049;-80
2021/10/29 00:20:04;;;;;;;196.00;138.80;;;;;;;1.65;91.45;99539.46;112531;1193;66667;-80
2021/10/29 00:22:31;;;;;;;194.60;137.00;;;;;;;1.62;91.45;99534.80;112424;1193;61045;-80
2021/10/29 00:24:57;;;;;;;199.80;141.80;;;;;;;1.57;91.32;99533.52;112560;1192;64686;-82
2021/10/29 00:27:24;;;;;;;195.00;142.20;;;;;;;1.51;91.26;99535.90;112499;1192;60975;-81
2021/10/29 00:29:51;;;;;;;198.70;144.80;;;;;;;1.46;91.34;99531.98;112629;1193;61086;-81
2021/10/29 00:32:17;;;;;;;204.80;149.00;;;;;;;1.44;91.36;99534.14;112317;1193;64522;-79
2021/10/29 00:34:44;;;;;;;197.20;142.30;;;;;;;1.41;91.48;99529.30;112354;1193;60921;-79
2021/10/29 00:37:10;;;;;;;211.70;145.10;;;;;;;1.38;91.50;99529.01;112404;1193;61048;-81
2021/10/29 00:39:37;;;;;;;194.90;141.30;;;;;;;1.35;91.42;99527.67;112551;1193;61064;-81
2021/10/29 00:42:04;;;;;;;199.70;145.90;;;;;;;1.32;91.39;99526.69;112611;1192;61074;-79
2021/10/29 00:44:31;;;;;;;208.10;145.70;;;;;;;1.29;91.44;99526.04;112559;1192;64488;-79
2021/10/29 00:46:58;;;;;;;210.40;146.90;;;;;;;1.27;91.52;99521.88;112597;1192;61001;-80
2021/10/29 00:49:25;;;;;;;212.10;145.40;;;;;;;1.25;91.44;99519.30;112307;1192;63944;-78
2021/10/29 00:51:52;;;;;;;217.90;146.00;;;;;;;1.21;91.22;99515.38;112441;1192;61049;-79
2021/10/29 00:54:20;;;;;;;207.50;146.90;;;;;;;1.16;91.24;99512.69;112498;1193;61058;-80
2021/10/29 00:56:48;;;;;;;211.60;144.10;;;;;;;1.11;91.24;99513.31;112485;1192;66063;-79
2021/10/29 00:59:17;;;;;;;212.90;149.50;;;;;;;1.04;91.22;99510.81;112493;1191;62108;-79
2021/10/29 01:01:48;;;;;;;210.70;150.00;;;;;;;1.01;91.41;99508.77;112520;1193;63609;-79
2021/10/29 01:04:15;;;;;;;204.10;141.60;;;;;;;0.97;91.39;99511.99;112541;1192;61027;-81
2021/10/29 01:06:43;;;;;;;204.10;141.80;;;;;;;0.94;91.38;99512.77;112315;1193;60981;-79
2021/10/29 01:09:12;;;;;;;214.60;146.90;;;;;;;0.88;91.38;99511.29;112507;1192;65737;-79
2021/10/29 01:11:39;;;;;;;211.80;146.80;;;;;;;0.85;91.46;99508.56;112469;1193;61055;-79
2021/10/29 01:14:06;;;;;;;220.30;148.10;;;;;;;0.82;91.60;99503.70;112470;1193;63895;-79
2021/10/29 01:16:33;;;;;;;219.70;150.80;;;;;;;0.81;91.60;99504.96;112485;1192;61020;-78
2021/10/29 01:18:59;;;;;;;218.70;146.90;;;;;;;0.78;91.80;99501.16;112495;1193;61033;-79
2021/10/29 01:21:26;;;;;;;202.40;148.60;;;;;;;0.76;91.75;99499.62;112263;1192;65903;-79
2021/10/29 01:23:52;;;;;;;207.60;146.30;;;;;;;0.75;91.76;99497.55;112485;1193;60969;-79
2021/10/29 01:26:19;;;;;;;207.40;142.60;;;;;;;0.72;91.75;99500.05;112505;1193;60956;-79
2021/10/29 01:28:47;;;;;;;206.80;139.70;;;;;;;0.66;91.71;99494.22;112248;1177;61169;-79
2021/10/29 01:31:15;;;;;;;189.20;131.70;;;;;;;0.60;91.66;99492.94;112506;1193;61139;-79
2021/10/29 01:33:43;;;;;;;203.20;138.20;;;;;;;0.56;91.62;99489.86;112551;1193;65697;-79
2021/10/29 01:36:10;;;;;;;204.80;139.10;;;;;;;0.53;91.68;99488.18;112526;1193;61745;-81
2021/10/29 01:38:40;;;;;;;197.50;138.00;;;;;;;0.49;91.68;99487.55;112559;1192;62811;-81
2021/10/29 01:41:07;;;;;;;;;;;;;;;0.49;91.85;99485.80;112559;1192;61053;-79
2021/10/29 01:43:42;;;;;;;199.80;135.40;;;;;;;0.46;91.93;99487.95;112502;1193;61030;-79
2021/10/29 01:46:09;;;;;;;197.60;138.80;;;;;;;0.50;92.09;99485.26;112253;1193;66735;-79
2021/10/29 01:48:54;;;;;;;204.90;145.30;;;;;;;0.52;92.07;99482.06;112490;1193;60940;-78
2021/10/29 01:51:20;;;;;;;214.70;140.50;;;;;;;0.55;91.99;99479.56;112495;1193;64684;-79
2021/10/29 01:53:47;;;;;;;213.20;144.10;;;;;;;0.55;91.92;99475.72;112524;1193;61046;-79
2021/10/29 01:56:14;;;;;;;203.80;141.70;;;;;;;0.57;91.96;99474.45;112546;1193;61055;-81
2021/10/29 01:58:41;;;;;;;197.60;136.70;;;;;;;0.61;92.00;99473.86;112553;1184;66037;-82
2021/10/29 02:01:08;;;;;;;208.90;140.90;;;;;;;0.59;91.92;99469.34;112502;1193;60935;-79
2021/10/29 02:03:34;;;;;;;211.50;140.70;;;;;;;0.58;91.85;99464.49;112567;1193;63751;-79
2021/10/29 02:06:02;;;;;;;197.00;136.00;;;;;;;0.57;92.00;99465.90;112332;1193;61745;-80
2021/10/29 02:08:29;;;;;;;205.60;142.50;;;;;;;0.58;92.06;99468.49;112626;1192;61062;-79
2021/10/29 02:10:55;;;;;;;234.10;153.10;;;;;;;0.57;92.24;99465.89;112527;1184;66040;-79
2021/10/29 02:13:22;;;;;;;233.10;151.30;;;;;;;0.58;92.36;99467.79;112554;1193;60969;-80
2021/10/29 02:15:49;;;;;;;238.50;150.30;;;;;;;0.60;92.41;99462.51;112552;1191;65155;-79
2021/10/29 02:18:16;;;;;;;235.40;154.40;;;;;;;0.62;92.41;99460.73;112313;1192;61049;-79
2021/10/29 02:20:44;;;;;;;240.30;154.00;;;;;;;0.63;92.46;99461.23;112542;1183;61050;-79
2021/10/29 02:23:13;;;;;;;244.50;156.30;;;;;;;0.64;92.45;99459.30;112532;1191;66905;-78
2021/10/29 02:25:43;;;;;;;245.20;155.00;;;;;;;0.62;92.42;99458.44;112516;1193;60986;-79
2021/10/29 02:28:12;;;;;;;248.30;154.40;;;;;;;0.60;92.51;99457.45;112505;1192;63788;-79
2021/10/29 02:30:39;;;;;;;292.80;190.30;;;;;;;0.58;92.71;99450.31;112487;1193;61052;-78
2021/10/29 02:33:06;;;;;;;297.30;190.40;;;;;;;0.60;92.91;99450.80;112521;1192;61011;-79
2021/10/29 02:35:32;;;;;;;285.70;185.30;;;;;;;0.61;93.02;99454.80;112502;1192;65903;-80
2021/10/29 02:37:59;;;;;;;288.60;186.40;;;;;;;0.63;93.20;99452.84;112470;1193;61038;-79
2021/10/29 02:40:25;;;;;;;283.60;184.60;;;;;;;0.65;93.28;99447.38;112468;1193;65015;-79
2021/10/29 02:42:52;;;;;;;294.20;185.90;;;;;;;0.66;93.43;99447.37;112444;1193;61064;-79
2021/10/29 02:45:18;;;;;;;291.30;184.60;;;;;;;0.66;93.36;99448.23;112142;1193;61037;-81
2021/10/29 02:47:47;;;;;;;288.50;193.10;;;;;;;0.69;93.44;99444.86;112564;1193;61109;-80
2021/10/29 02:50:16;;;;;;;281.30;187.00;;;;;;;0.72;93.52;99445.15;112563;1193;67638;-80
2021/10/29 02:52:43;;;;;;;303.10;184.90;;;;;;;0.73;93.57;99444.23;112342;1193;63691;-80
2021/10/29 02:55:11;;;;;;;279.40;186.30;;;;;;;0.72;93.52;99443.59;112553;1193;61017;-79
2021/10/29 02:57:37;;;;;;;295.00;189.90;;;;;;;0.72;93.52;99447.25;112329;1193;61057;-80
2021/10/29 03:00:07;;;;;;;286.20;182.70;;;;;;;0.73;93.59;99448.98;112501;1193;61026;-79
2021/10/29 03:02:34;;;;;;;288.70;177.90;;;;;;;0.73;93.74;99444.43;112504;1193;60970;-80
2021/10/29 03:05:03;;;;;;;307.70;172.70;;;;;;;0.74;93.88;99448.60;112512;1193;64951;-80
2021/10/29 03:07:30;;;;;;;309.60;171.50;;;;;;;0.75;93.97;99443.86;112546;1192;61053;-80
2021/10/29 03:09:57;;;;;;;303.40;177.10;;;;;;;0.73;93.98;99440.57;112262;1193;61091;-79
2021/10/29 03:12:23;;;;;;;309.00;167.00;;;;;;;0.74;93.98;99441.61;112532;1193;61071;-80
2021/10/29 03:14:51;;;;;;;303.20;169.70;;;;;;;0.71;93.94;99441.15;112533;1192;60999;-81
2021/10/29 03:17:18;;;;;;;293.00;166.80;;;;;;;0.68;93.97;99441.90;112288;1193;63795;-80
2021/10/29 03:19:44;;;;;;;280.40;164.00;;;;;;;0.67;94.10;99435.96;112527;1192;61078;-79
2021/10/29 03:22:11;;;;;;;275.00;168.20;;;;;;;0.65;94.08;99435.47;112547;1193;61075;-80
2021/10/29 03:24:38;;;;;;;263.00;161.70;;;;;;;0.67;94.21;99433.34;112576;1193;65895;-80
2021/10/29 03:27:04;;;;;;;272.30;166.40;;;;;;;0.68;94.19;99434.38;112470;1193;60994;-80
2021/10/29 03:29:31;;;;;;;262.60;158.70;;;;;;;0.69;94.28;99433.15;112327;1193;64043;-80
2021/10/29 03:31:57;;;;;;;249.00;156.40;;;;;;;0.69;94.29;99432.27;112267;1193;60999;-79
2021/10/29 03:34:24;;;;;;;256.30;163.50;;;;;;;0.68;94.36;99429.84;112278;1193;61125;-79
2021/10/29 03:36:51;;;;;;;246.70;153.00;;;;;;;0.66;94.36;99431.64;112563;1192;67005;-79
2021/10/29 03:39:26;;;;;;;266.30;154.80;;;;;;;0.63;94.30;99431.52;112264;1193;61052;-80
2021/10/29 03:41:58;;;;;;;246.80;153.10;;;;;;;0.62;94.34;99427.85;112584;1192;63804;-80
2021/10/29 03:45:09;;;;;;;255.70;159.20;;;;;;;0.61;94.36;99430.33;112562;1184;61091;-80
2021/10/29 03:47:17;;;;;;;235.70;150.00;;;;;;;0.59;94.43;99430.89;112518;1193;61043;-80
2021/10/29 03:49:49;;;;;;;241.30;146.00;;;;;;;0.55;94.28;99431.33;112577;1192;64397;-79
2021/10/29 03:54:45;;;;;;;239.90;143.30;;;;;;;0.53;94.51;99432.23;112292;1193;62617;-80
2021/10/29 03:57:33;;;;;;;227.10;144.40;;;;;;;0.56;94.57;99434.10;112565;1193;61008;-80
2021/10/29 03:59:58;;;;;;;236.90;145.60;;;;;;;0.59;94.65;99434.92;112571;1192;61062;-80
2021/10/29 04:02:25;;;;;;;224.40;141.30;;;;;;;0.58;94.55;99433.02;112524;1192;64348;-79
2021/10/29 04:04:52;;;;;;;209.50;135.20;;;;;;;0.56;94.63;99437.24;112555;1193;61040;-79
2021/10/29 04:07:18;;;;;;;209.40;134.40;;;;;;;0.55;94.58;99438.81;112478;1193;61058;-79
2021/10/29 04:09:45;;;;;;;213.40;132.50;;;;;;;0.54;94.58;99443.92;112496;1192;61148;-79
2021/10/29 04:12:14;;;;;;;199.50;122.00;;;;;;;0.52;94.63;99440.45;112482;1192;61033;-80
2021/10/29 04:14:43;;;;;;;217.50;128.80;;;;;;;0.50;94.74;99439.98;112254;1193;64787;-79
2021/10/29 04:17:09;;;;;;;225.90;130.80;;;;;;;0.51;94.79;99440.66;112260;1193;61081;-79
2021/10/29 04:19:36;;;;;;;221.50;126.40;;;;;;;0.51;94.75;99439.27;112213;1193;62802;-79
2021/10/29 04:22:03;;;;;;;199.20;124.10;;;;;;;0.51;94.72;99438.05;112496;1192;60979;-79
2021/10/29 04:24:29;;;;;;;205.50;130.40;;;;;;;0.52;94.83;99437.48;112497;1193;61050;-79
2021/10/29 04:26:59;;;;;;;217.30;130.40;;;;;;;0.53;94.99;99434.33;112503;1193;61048;-79
2021/10/29 04:29:28;;;;;;;206.60;128.30;;;;;;;0.54;94.93;99436.57;112259;1193;61040;-79
2021/10/29 04:31:55;;;;;;;210.10;128.00;;;;;;;0.53;94.81;99437.66;112496;1193;63922;-82
2021/10/29 04:34:25;;;;;;;204.60;124.40;;;;;;;0.52;94.83;99434.86;112529;1193;61026;-79
2021/10/29 04:36:53;;;;;;;208.50;125.30;;;;;;;0.51;94.80;99435.25;112301;1193;61125;-79
2021/10/29 04:39:21;;;;;;;207.20;128.50;;;;;;;0.50;94.95;99437.70;112572;1192;64703;-80
2021/10/29 04:41:52;;;;;;;220.80;129.50;;;;;;;0.50;95.08;99432.81;112338;1193;61043;-79
2021/10/29 04:44:23;;;;;;;220.90;128.80;;;;;;;0.51;95.07;99435.42;112594;1192;72626;-79
2021/10/29 04:46:51;;;;;;;214.20;130.00;;;;;;;0.54;95.21;99432.39;112566;1192;60955;-79
2021/10/29 04:49:17;;;;;;;214.60;129.90;;;;;;;0.56;95.31;99428.66;112584;1193;61049;-81
2021/10/29 04:51:44;;;;;;;218.60;133.20;;;;;;;0.56;95.30;99431.48;112290;1193;65821;-79
2021/10/29 04:54:11;;;;;;;221.70;130.80;;;;;;;0.58;95.31;99430.04;112311;1193;61072;-80
2021/10/29 04:56:37;;;;;;;212.30;130.10;;;;;;;0.57;95.34;99427.78;112514;1193;64685;-79
2021/10/29 04:59:04;;;;;;;214.70;134.20;;;;;;;0.58;95.35;99422.52;112524;1192;61061;-79
2021/10/29 05:01:31;;;;;;;215.10;131.20;;;;;;;0.60;95.38;99423.87;112458;1193;61001;-81
2021/10/29 05:03:58;;;;;;;212.10;129.30;;;;;;;0.60;95.22;99420.02;112551;1193;64415;-80
2021/10/29 05:06:24;;;;;;;214.30;132.70;;;;;;;0.60;95.36;99419.67;112577;1193;61036;-79
2021/10/29 05:08:51;;;;;;;210.00;127.80;;;;;;;0.63;95.53;99418.04;112519;1192;61049;-80
2021/10/29 05:11:17;;;;;;;203.80;129.50;;;;;;;0.66;95.57;99418.16;112524;1192;61003;-81
2021/10/29 05:13:44;;;;;;;201.90;128.10;;;;;;;0.67;95.48;99419.73;112522;1192;60940;-80
2021/10/29 05:16:10;;;;;;;197.50;127.10;;;;;;;0.67;95.46;99420.24;112320;1192;61019;-79
2021/10/29 05:18:37;;;;;;;217.50;127.80;;;;;;;0.65;95.30;99418.52;112248;1192;61645;-81
2021/10/29 05:21:03;;;;;;;183.10;115.20;;;;;;;0.63;95.26;99421.71;112359;1192;61058;-80
2021/10/29 05:23:30;;;;;;;191.90;116.20;;;;;;;0.60;95.19;99420.03;112492;1192;61046;-81
2021/10/29 05:25:56;;;;;;;193.80;119.20;;;;;;;0.58;95.33;99418.48;112255;1193;60973;-80
2021/10/29 05:28:23;;;;;;;183.00;115.90;;;;;;;0.59;95.43;99416.90;112527;1192;61067;-81
2021/10/29 05:30:50;;;;;;;187.70;114.80;;;;;;;0.59;95.46;99417.41;112552;1192;61106;-81
2021/10/29 05:33:16;;;;;;;193.80;115.80;;;;;;;0.60;95.51;99420.02;112462;1192;61001;-80
2021/10/29 05:35:43;;;;;;;177.30;112.40;;;;;;;0.61;95.55;99417.38;112490;1193;61003;-80
2021/10/29 05:38:09;;;;;;;190.00;115.30;;;;;;;0.64;95.67;99418.21;112478;1192;61032;-80
2021/10/29 05:40:36;;;;;;;185.70;116.60;;;;;;;0.66;95.67;99420.44;112450;1192;61068;-80
2021/10/29 05:43:02;;;;;;;177.30;114.40;;;;;;;0.71;95.74;99420.16;112450;1192;60997;-77
2021/10/29 05:45:29;;;;;;;173.70;108.10;;;;;;;0.75;95.73;99424.09;112559;1193;61067;-80
2021/10/29 05:48:03;;;;;;;171.90;111.90;;;;;;;0.77;95.71;99421.27;112520;1187;61042;-83
2021/10/29 05:50:30;;;;;;;182.90;107.50;;;;;;;0.80;95.69;99424.00;112581;1193;61026;-80
2021/10/29 05:52:58;;;;;;;174.10;107.00;;;;;;;0.82;95.70;99426.58;112258;1193;65668;-80
2021/10/29 05:55:25;;;;;;;160.00;103.60;;;;;;;0.86;95.78;99424.05;112615;1193;61058;-81
2021/10/29 05:57:53;;;;;;;156.40;98.50;;;;;;;0.90;95.61;99423.99;112467;1192;61025;-80
2021/10/29 06:00:28;;;;;;;155.50;94.90;;;;;;;0.93;95.70;99425.48;112524;1193;61045;-81
2021/10/29 06:02:56;;;;;;;152.50;96.60;;;;;;;0.96;95.63;99429.63;112569;1193;61158;-81
2021/10/29 06:05:22;;;;;;;157.20;97.50;;;;;;;0.99;95.60;99428.67;112519;1184;66060;-81
2021/10/29 06:07:49;;;;;;;162.20;101.80;;;;;;;1.02;95.48;99422.84;112548;1193;60946;-79
2021/10/29 06:10:16;;;;;;;145.70;97.10;;;;;;;1.05;95.52;99422.61;112492;1192;63737;-79
2021/10/29 06:12:44;;;;;;;148.00;96.00;;;;;;;1.08;95.47;99429.90;112501;1192;61007;-81
2021/10/29 06:15:15;;;;;;;144.00;94.30;;;;;;;1.12;95.51;99429.10;112516;1192;60914;-79
2021/10/29 06:17:42;;;;;;;135.40;85.80;;;;;;;1.15;95.44;99435.16;112506;1193;64816;-80
2021/10/29 06:20:10;;;;;;;130.40;86.20;;;;;;;1.19;95.47;99439.98;112541;1192;60985;-81
2021/10/29 06:22:38;;;;;;;135.30;84.10;;;;;;;1.26;95.61;99440.34;112592;1192;64063;-80
2021/10/29 06:25:17;;;;;;;125.20;84.20;;;;;;;1.33;95.39;99439.84;112344;1192;61091;-80
2021/10/29 06:30:31;;;;;;;132.90;88.40;;;;;;;1.48;95.38;99441.24;112610;1192;65848;-80
2021/10/29 06:32:59;;;;;;;128.70;86.80;;;;;;;1.58;95.36;99445.58;112522;1192;61348;-80
2021/10/29 06:35:26;;;;;;;125.00;78.50;;;;;;;1.68;95.35;99445.17;112506;1193;65221;-80
2021/10/29 06:37:53;;;;;;;124.60;81.40;;;;;;;1.75;94.99;99445.52;112542;1193;61088;-81
2021/10/29 06:40:19;;;;;;;130.10;81.60;;;;;;;1.81;94.98;99450.11;112612;1193;61010;-80
2021/10/29 06:42:56;;;;;;;132.00;84.80;;;;;;;1.86;94.75;99448.06;112313;1192;61088;-79
2021/10/29 07:01:47;;;;;;;128.70;85.00;;;;;;;2.23;93.96;99448.89;112540;1187;63668;-80
2021/10/29 07:42:32;;;;;;;107.50;77.10;;;;;;;3.84;93.01;99450.20;112241;1192;64039;-81
2021/10/29 07:44:59;;;;;;;103.40;74.00;;;;;;;3.99;93.14;99450.79;112541;1192;61075;-80
2021/10/29 07:47:26;;;;;;;117.30;78.20;;;;;;;4.12;93.06;99452.64;112324;1192;61075;-80
2021/10/29 07:49:53;;;;;;;112.90;74.40;;;;;;;4.22;92.86;99449.66;112283;1184;66007;-79
2021/10/29 07:52:20;;;;;;;98.30;71.50;;;;;;;4.34;92.60;99455.58;112545;1192;61037;-79
2021/10/29 07:54:46;;;;;;;114.60;77.00;;;;;;;4.43;92.45;99456.17;112529;1193;63775;-80
2021/10/29 07:57:20;;;;;;;118.60;79.70;;;;;;;4.51;92.33;99453.40;112578;1192;61006;-79
2021/10/29 07:59:50;;;;;;;112.80;78.10;;;;;;;4.65;92.23;99454.86;112301;1193;61087;-79
2021/10/29 08:02:17;;;;;;;112.00;77.80;;;;;;;4.72;91.96;99453.37;112588;1193;64487;-79
2021/10/29 08:04:49;;;;;;;107.00;77.00;;;;;;;4.82;91.94;99446.70;112494;1192;61039;-79
2021/10/29 08:07:33;;;;;;;112.40;77.20;;;;;;;4.93;92.03;99443.82;111971;1193;72771;-80
2021/10/29 08:10:05;;;;;;;101.00;78.90;;;;;;;5.00;91.95;99446.04;112502;1192;61057;-80
2021/10/29 08:12:33;;;;;;;112.90;83.50;;;;;;;5.14;92.02;99446.55;112550;1192;61053;-79
2021/10/29 08:15:02;;;;;;;114.80;87.60;;;;;;;5.25;92.09;99445.95;112576;1192;66985;-80
2021/10/29 08:17:32;;;;;;;116.30;87.20;;;;;;;5.31;92.08;99449.96;112308;1192;61139;-80
2021/10/29 08:20:00;;;;;;;125.60;92.80;;;;;;;5.34;92.10;99442.81;112242;1192;63787;-79
2021/10/29 08:22:27;;;;;;;110.50;83.70;;;;;;;5.34;92.11;99441.08;112489;1192;61093;-79
2021/10/29 08:24:54;;;;;;;112.00;85.40;;;;;;;5.33;92.27;99442.87;112504;1192;61145;-81
2021/10/29 08:27:21;;;;;;;108.50;83.20;;;;;;;5.34;92.35;99438.61;112545;1183;60904;-79
2021/10/29 08:29:48;;;;;;;106.40;79.80;;;;;;;5.35;92.48;99435.57;112257;1193;61122;-79
2021/10/29 08:32:15;;;;;;;103.80;81.40;;;;;;;5.39;92.81;99430.98;112554;1192;61092;-79
2021/10/29 08:34:42;;;;;;;102.10;79.30;;;;;;;5.45;93.07;99428.96;112493;1192;61058;-79
2021/10/29 08:37:10;;;;;;;103.50;80.50;;;;;;;5.54;93.25;99425.48;112506;1192;61062;-79
2021/10/29 08:39:38;;;;;;;97.30;76.60;;;;;;;5.61;93.14;99419.92;112463;1192;64683;-79
2021/10/29 08:42:06;;;;;;;98.20;77.00;;;;;;;5.67;93.15;99419.83;112165;1193;61084;-79
2021/10/29 08:44:34;;;;;;;92.20;71.60;;;;;;;5.73;92.91;99411.82;112522;1192;62342;-79
2021/10/29 08:47:03;;;;;;;82.50;63.10;;;;;;;5.80;92.73;99415.80;112436;1192;60989;-79
2021/10/29 08:49:31;;;;;;;96.30;71.90;;;;;;;5.87;92.64;99417.30;112522;1192;61052;-78
2021/10/29 08:52:00;;;;;;;100.70;74.40;;;;;;;5.97;92.69;99419.91;112532;1192;64364;-79
2021/10/29 08:54:28;;;;;;;92.70;69.80;;;;;;;6.08;92.71;99415.73;112522;1192;61027;-79
2021/10/29 08:56:56;;;;;;;89.00;68.00;;;;;;;6.21;92.74;99413.59;112486;1192;64186;-79
2021/10/29 08:59:32;;;;;;;93.30;70.60;;;;;;;6.36;92.66;99410.66;112553;1193;61154;-79
2021/10/29 09:04:52;;;;;;;77.80;58.70;;;;;;;6.66;92.57;99408.99;112537;1192;64513;-78
2021/10/29 09:32:40;;;;;;;52.30;42.50;;;;;;;8.14;89.57;99401.44;112546;1192;66000;-79
2021/10/29 09:35:16;;;;;;;54.90;45.40;;;;;;;8.26;89.20;99397.34;112475;1193;61065;-78
2021/10/29 09:38:03;;;;;;;46.70;38.00;;;;;;;8.40;88.83;99398.23;112445;1192;62703;-78
2021/10/29 09:40:32;;;;;;;56.00;43.90;;;;;;;8.57;88.59;99398.59;112451;1192;60988;-78
2021/10/29 09:43:13;;;;;;;57.50;44.80;;;;;;;8.72;88.45;99397.44;112532;1192;61096;-79
2021/10/29 09:45:56;;;;;;;53.40;43.80;;;;;;;8.87;88.31;99392.58;112242;1192;65774;-78
2021/10/29 09:51:08;;;;;;;56.70;42.10;;;;;;;9.18;87.55;99383.27;112514;1193;62355;-79
2021/10/29 09:56:10;;;;;;;;;;;;;;;9.45;86.78;99383.40;112514;1193;60957;-79
2021/10/29 09:58:42;;;;;;;61.10;46.10;;;;;;;9.59;86.75;99383.11;112308;1193;67035;-79
2021/10/29 10:01:10;;;;;;;52.80;41.10;;;;;;;9.77;86.70;99376.22;112562;1192;61082;-80
2021/10/29 10:03:44;;;;;;;58.80;46.30;;;;;;;9.94;86.16;99371.20;112562;1192;64088;-79
2021/10/29 10:06:13;;;;;;;49.80;42.40;;;;;;;10.08;85.90;99372.34;112287;1193;61758;-79
2021/10/29 10:08:41;;;;;;;52.40;42.30;;;;;;;10.22;85.43;99368.10;112601;1192;61046;-80
2021/10/29 10:11:11;;;;;;;48.50;38.70;;;;;;;10.35;85.23;99364.68;112510;1192;65758;-78
2021/10/29 10:13:40;;;;;;;53.90;41.50;;;;;;;10.50;84.72;99367.83;112542;1192;61713;-78
2021/10/29 10:16:08;;;;;;;50.40;40.20;;;;;;;10.63;84.28;99365.28;112496;1193;62729;-78
2021/10/29 10:18:34;;;;;;;52.10;42.00;;;;;;;10.76;83.40;99365.39;112213;1193;61068;-78
2021/10/29 10:21:05;;;;;;;34.80;28.50;;;;;;;10.87;82.76;99365.99;112477;1192;61058;-78
2021/10/29 10:23:39;;;;;;;40.50;31.50;;;;;;;10.95;82.19;99359.58;112508;1193;64733;-78
2021/10/29 10:43:07;;;;;;;41.20;34.20;;;;;;;11.74;79.29;99341.73;112523;1192;62342;-81
2021/10/29 10:45:40;;;;;;;41.90;32.20;;;;;;;11.85;79.10;99338.30;112578;1192;61059;-80
2021/10/29 10:48:13;;;;;;;35.00;28.30;;;;;;;11.98;78.49;99336.21;112629;1192;60968;-80
2021/10/29 10:50:46;;;;;;;37.20;29.40;;;;;;;12.12;77.56;99334.20;112639;1193;64584;-80
2021/10/29 10:53:31;;;;;;;35.20;28.50;;;;;;;12.24;77.05;99325.20;112315;1193;60965;-80
2021/10/29 10:56:18;;;;;;;33.00;26.80;;;;;;;12.34;76.57;99319.54;112632;1192;63684;-80
2021/10/29 10:59:13;;;;;;;30.10;24.40;;;;;;;12.43;76.16;99317.67;112508;1192;60992;-80
2021/10/29 11:07:17;;;;;;;35.00;27.00;;;;;;;12.73;74.47;99312.52;112598;1192;61058;-82
2021/10/29 11:10:05;;;;;;;32.90;26.70;;;;;;;12.83;73.60;99308.95;112537;1192;62366;-81
2021/10/29 11:12:41;;;;;;;34.90;24.60;;;;;;;12.93;73.20;99306.99;112544;1192;61036;-82
2021/10/29 11:15:22;;;;;;;27.20;22.20;;;;;;;13.04;73.33;99302.32;112606;1193;61110;-82
2021/10/29 11:18:02;;;;;;;28.00;23.60;;;;;;;13.13;72.74;99302.90;112664;1191;64369;-82
2021/10/29 11:20:35;;;;;;;33.90;24.80;;;;;;;13.20;72.51;99302.52;112593;1192;61078;-79
2021/10/29 11:23:09;;;;;;;35.10;26.30;;;;;;;13.25;72.38;99300.58;112555;1193;63643;-81
2021/10/29 11:25:49;;;;;;;33.60;26.90;;;;;;;13.28;71.85;99294.84;112545;1193;61061;-80
2021/10/29 11:28:16;;;;;;;29.10;26.00;;;;;;;13.30;71.22;99290.44;112585;1192;60969;-81
2021/10/29 11:30:45;;;;;;;30.70;25.50;;;;;;;13.32;71.03;99286.41;112585;1191;65639;-82
2021/10/29 11:33:14;;;;;;;32.10;25.50;;;;;;;13.36;70.99;99282.12;112611;1192;61084;-81
2021/10/29 11:35:57;;;;;;;32.70;25.00;;;;;;;13.41;70.85;99279.44;112598;1192;63871;-80
2021/10/29 11:38:25;;;;;;;28.20;22.60;;;;;;;13.43;70.40;99272.20;112592;1193;61064;-80
2021/10/29 11:40:52;;;;;;;25.00;20.70;;;;;;;13.48;69.84;99273.20;112629;1192;61027;-80
2021/10/29 11:43:24;;;;;;;23.20;20.40;;;;;;;13.54;69.03;99270.96;112618;1192;66070;-79
2021/10/29 11:45:50;;;;;;;24.30;21.20;;;;;;;13.60;68.46;99270.36;112659;1192;61062;-79
2021/10/29 11:48:18;;;;;;;30.60;24.50;;;;;;;13.68;68.10;99268.86;112652;1191;63923;-79
2021/10/29 11:50:44;;;;;;;33.80;27.60;;;;;;;13.75;68.04;99265.35;112288;1192;60993;-81
2021/10/29 11:53:13;;;;;;;33.00;27.40;;;;;;;13.80;67.95;99259.38;112608;1193;61058;-81
2021/10/29 11:55:51;;;;;;;35.40;28.70;;;;;;;13.86;67.77;99261.06;112693;1192;65612;-81
2021/10/29 11:58:35;;;;;;;36.20;29.40;;;;;;;13.90;67.68;99258.63;112531;1192;60956;-80
2021/10/29 12:01:26;;;;;;;32.30;26.80;;;;;;;13.93;67.95;99261.28;112591;1193;63712;-81
2021/10/29 12:09:31;;;;;;;35.70;26.40;;;;;;;13.96;66.81;99263.33;112498;1192;61151;-82
2021/10/29 12:12:14;;;;;;;30.60;27.20;;;;;;;14.00;66.78;99263.21;112566;1192;60955;-80
2021/10/29 12:14:47;;;;;;;30.00;25.40;;;;;;;14.05;66.58;99259.66;112560;1192;62475;-81
2021/10/29 12:17:23;;;;;;;28.60;25.30;;;;;;;14.09;66.52;99258.82;112522;1193;61158;-82
2021/10/29 12:19:54;;;;;;;31.70;28.20;;;;;;;14.14;66.52;99251.20;112601;1192;61062;-81
2021/10/29 12:25:23;;;;;;;31.80;24.30;;;;;;;14.20;66.53;99246.86;112647;1193;61077;-80
2021/10/29 12:59:29;;;;;;;27.00;21.50;;;;;;;14.72;63.33;99214.38;112535;1193;61023;-80
2021/10/29 13:02:00;;;;;;;24.80;21.00;;;;;;;14.79;63.21;99208.63;112604;1192;61038;-80
2021/10/29 13:04:45;;;;;;;23.30;19.90;;;;;;;14.83;63.18;99206.30;112585;1192;66865;-80
2021/10/29 13:07:13;;;;;;;24.20;18.30;;;;;;;14.83;62.73;99200.23;112566;1193;61020;-80
2021/10/29 13:09:40;;;;;;;24.60;18.10;;;;;;;14.83;62.47;99199.69;112314;1192;62672;-81
2021/10/29 13:12:16;;;;;;;26.30;18.60;;;;;;;14.84;62.06;99203.34;112503;1192;60975;-81
2021/10/29 13:14:52;;;;;;;24.40;16.90;;;;;;;14.86;61.69;99203.73;112366;1192;61161;-81
2021/10/29 13:17:32;;;;;;;22.00;16.10;;;;;;;14.87;61.61;99203.97;112591;1192;66039;-80
2021/10/29 13:55:35;;;;;;;15.40;10.90;;;;;;;14.99;56.32;99192.10;112362;1193;60599;-81
2021/10/29 14:33:06;;;;;;;18.10;12.10;;;;;;;14.38;54.93;99182.88;112587;1193;61040;-81
2021/10/29 14:38:16;;;;;;;16.90;11.70;;;;;;;14.18;55.02;99182.52;112473;1192;64562;-80
2021/10/29 14:48:23;;;;;;;17.40;13.50;;;;;;;13.86;55.53;99184.80;112637;1192;60928;-80
2021/10/29 14:51:14;;;;;;;25.90;16.90;;;;;;;13.73;55.63;99180.96;112580;1192;64363;-82
2021/10/29 15:04:39;;;;;;;27.00;19.10;;;;;;;13.04;56.78;99172.29;112573;1192;66213;-80
2021/10/29 15:43:12;;;;;;;38.20;18.90;;;;;;;10.68;63.09;99171.11;112638;1192;61056;-82
2021/10/29 15:45:21;;;;;;;39.70;23.10;;;;;;;10.52;63.47;99167.20;112517;1192;66029;-81
2021/10/29 15:50:30;;;;;;;74.90;41.20;;;;;;;10.21;64.07;99174.96;112646;1193;63957;-80
2021/10/29 15:52:57;;;;;;;71.60;46.20;;;;;;;10.08;64.27;99176.29;112602;1192;61042;-80
2021/10/29 15:58:17;;;;;;;45.80;29.80;;;;;;;9.82;64.71;99178.43;112343;1192;65839;-80
2021/10/29 16:03:27;;;;;;;49.50;32.30;;;;;;;9.57;65.41;99177.98;112587;1193;64765;-79
2021/10/29 16:19:35;;;;;;;59.10;37.10;;;;;;;8.89;67.84;99173.14;112580;1192;61033;-81
2021/10/29 16:22:08;;;;;;;178.10;100.20;;;;;;;8.80;68.10;99178.05;112221;1193;60983;-80